createdAt,value
2018-08-09T00:00:56.138Z,99.70
2018-08-09T00:03:24.601Z,99.60
2018-08-09T00:05:53.058Z,99.80
2018-08-09T00:08:21.538Z,99.80
2018-08-09T00:10:49.966Z,99.80
2018-08-09T00:13:18.425Z,99.90
2018-08-09T00:15:46.890Z,99.90
2018-08-09T00:18:15.322Z,99.90
2018-08-09T00:20:43.755Z,99.90
2018-08-09T00:23:12.191Z,99.90
2018-08-09T00:25:40.670Z,99.90
2018-08-09T00:28:09.130Z,99.90
2018-08-09T00:30:37.553Z,99.90
2018-08-09T00:33:06.328Z,99.90
2018-08-09T00:35:34.795Z,99.90
2018-08-09T00:38:03.287Z,99.90
2018-08-09T00:40:31.718Z,99.90
2018-08-09T00:43:00.219Z,99.90
2018-08-09T00:45:28.632Z,99.90
2018-08-09T00:47:57.086Z,99.90
2018-08-09T00:50:25.605Z,99.90
2018-08-09T00:52:54.134Z,99.90
2018-08-09T00:55:22.599Z,99.90
2018-08-09T00:57:51.381Z,99.90
2018-08-09T01:00:19.868Z,99.90
2018-08-09T01:02:48.727Z,99.90
2018-08-09T01:05:17.169Z,99.90
2018-08-09T01:07:45.665Z,99.90
2018-08-09T01:10:14.141Z,99.90
2018-08-09T01:12:42.648Z,99.90
2018-08-09T01:15:11.223Z,99.90
2018-08-09T01:17:39.713Z,99.90
2018-08-09T01:20:11.371Z,99.90
2018-08-09T01:22:40.161Z,99.90
2018-08-09T01:25:08.978Z,99.90
2018-08-09T01:27:37.479Z,99.90
2018-08-09T01:30:05.935Z,99.90
2018-08-09T01:32:34.423Z,99.90
2018-08-09T01:35:03.145Z,99.90
2018-08-09T01:37:31.619Z,99.90
2018-08-09T01:40:00.312Z,99.90
2018-08-09T01:42:40.048Z,99.90
2018-08-09T01:45:08.490Z,99.90
2018-08-09T01:47:37.003Z,99.90
2018-08-09T01:50:05.471Z,99.90
2018-08-09T01:52:33.988Z,99.90
2018-08-09T01:55:02.434Z,99.90
2018-08-09T01:57:30.935Z,99.90
2018-08-09T01:59:59.455Z,99.90
2018-08-09T02:02:27.999Z,99.90
2018-08-09T02:04:56.547Z,99.90
2018-08-09T02:07:24.979Z,99.90
2018-08-09T02:09:53.451Z,99.90
2018-08-09T02:12:21.942Z,99.90
2018-08-09T02:14:50.461Z,99.90
2018-08-09T02:17:18.938Z,99.90
2018-08-09T02:19:47.425Z,99.90
2018-08-09T02:22:15.877Z,99.90
2018-08-09T02:24:44.362Z,99.90
2018-08-09T02:27:12.807Z,99.90
2018-08-09T02:29:41.310Z,99.90
2018-08-09T02:32:09.791Z,99.90
2018-08-09T02:34:38.625Z,99.90
2018-08-09T02:37:07.265Z,99.90
2018-08-09T02:39:35.783Z,99.90
2018-08-09T02:42:04.310Z,99.90
2018-08-09T02:44:32.831Z,99.90
2018-08-09T02:47:01.398Z,99.90
2018-08-09T02:49:29.915Z,99.90
2018-08-09T02:51:58.683Z,99.90
2018-08-09T02:54:27.531Z,99.90
2018-08-09T02:56:56.042Z,99.90
2018-08-09T02:59:24.528Z,99.90
2018-08-09T03:01:53.002Z,99.90
2018-08-09T03:04:21.810Z,99.90
2018-08-09T03:06:50.567Z,99.90
2018-08-09T03:09:19.070Z,99.90
2018-08-09T03:11:47.522Z,99.90
2018-08-09T03:14:16.005Z,99.90
2018-08-09T03:16:44.451Z,99.90
2018-08-09T03:19:12.946Z,99.90
2018-08-09T03:21:41.434Z,99.90
2018-08-09T03:24:10.241Z,99.90
2018-08-09T03:26:38.733Z,99.90
2018-08-09T03:29:07.205Z,99.90
2018-08-09T03:31:35.679Z,99.90
2018-08-09T03:34:04.483Z,99.90
2018-08-09T03:36:33.235Z,99.90
2018-08-09T03:39:01.980Z,99.90
2018-08-09T03:41:30.435Z,99.90
2018-08-09T03:43:59.218Z,99.90
2018-08-09T03:46:27.687Z,99.90
2018-08-09T03:48:56.473Z,99.90
2018-08-09T03:51:24.951Z,99.90
2018-08-09T03:53:53.434Z,99.90
2018-08-09T03:56:21.897Z,99.90
2018-08-09T03:58:50.369Z,99.90
2018-08-09T04:01:18.850Z,99.90
2018-08-09T04:03:47.588Z,99.90
2018-08-09T04:06:16.060Z,99.90
2018-08-09T04:08:44.510Z,99.90
2018-08-09T04:11:13.326Z,99.90
2018-08-09T04:13:42.116Z,99.90
2018-08-09T04:16:10.616Z,99.90
2018-08-09T04:18:39.092Z,99.90
2018-08-09T04:21:08.251Z,99.90
2018-08-09T04:23:36.994Z,99.90
2018-08-09T04:26:07.750Z,99.90
2018-08-09T04:28:36.985Z,99.90
2018-08-09T04:31:06.724Z,99.90
2018-08-09T04:33:38.044Z,99.90
2018-08-09T04:36:07.024Z,99.90
2018-08-09T04:38:35.510Z,99.90
2018-08-09T04:41:04.251Z,99.90
2018-08-09T04:43:32.710Z,99.90
2018-08-09T04:46:01.631Z,99.90
2018-08-09T04:48:30.238Z,99.90
2018-08-09T04:50:58.789Z,99.90
2018-08-09T04:53:27.496Z,99.90
2018-08-09T04:55:55.977Z,99.90
2018-08-09T04:58:24.494Z,99.90
2018-08-09T05:00:52.966Z,99.90
2018-08-09T05:03:21.453Z,99.90
2018-08-09T05:05:49.937Z,99.90
2018-08-09T05:08:19.077Z,99.90
2018-08-09T05:10:47.590Z,99.90
2018-08-09T05:13:16.058Z,99.90
2018-08-09T05:15:44.549Z,99.90
2018-08-09T05:18:13.030Z,99.90
2018-08-09T05:20:41.568Z,99.90
2018-08-09T05:23:10.126Z,99.90
2018-08-09T05:25:38.578Z,99.90
2018-08-09T05:28:07.498Z,99.90
2018-08-09T05:30:35.995Z,99.90
2018-08-09T05:33:04.582Z,99.90
2018-08-09T05:35:33.370Z,99.90
2018-08-09T05:38:01.846Z,99.90
2018-08-09T05:40:30.355Z,99.90
2018-08-09T05:42:59.115Z,99.90
2018-08-09T05:45:27.607Z,99.90
2018-08-09T05:47:56.087Z,99.90
2018-08-09T05:50:24.529Z,99.90
2018-08-09T05:52:53.160Z,99.90
2018-08-09T05:55:21.817Z,99.90
2018-08-09T05:57:50.283Z,99.90
2018-08-09T06:00:18.761Z,99.90
2018-08-09T06:02:47.259Z,99.90
2018-08-09T06:05:15.992Z,99.90
2018-08-09T06:07:44.514Z,99.90
2018-08-09T06:10:12.965Z,99.90
2018-08-09T06:12:41.983Z,99.90
2018-08-09T06:15:10.445Z,99.90
2018-08-09T06:17:38.936Z,99.90
2018-08-09T06:20:07.531Z,99.90
2018-08-09T06:22:36.008Z,99.90
2018-08-09T06:25:05.423Z,99.90
2018-08-09T06:27:33.920Z,99.90
2018-08-09T06:30:02.441Z,99.90
2018-08-09T06:32:30.942Z,99.90
2018-08-09T06:34:59.426Z,99.90
2018-08-09T06:37:27.950Z,99.90
2018-08-09T06:39:56.977Z,99.90
2018-08-09T06:42:25.643Z,99.90
2018-08-09T06:44:54.354Z,99.90
2018-08-09T06:47:23.201Z,99.90
2018-08-09T06:49:51.657Z,99.90
2018-08-09T06:52:20.161Z,99.90
2018-08-09T06:54:48.966Z,99.90
2018-08-09T06:57:17.476Z,99.90
2018-08-09T06:59:45.914Z,99.90
2018-08-09T07:02:14.388Z,99.90
2018-08-09T07:04:42.965Z,99.90
2018-08-09T07:07:11.443Z,99.90
2018-08-09T07:09:39.947Z,99.90
2018-08-09T07:12:08.440Z,99.90
2018-08-09T07:14:36.904Z,99.90
2018-08-09T07:17:05.412Z,99.90
2018-08-09T07:19:33.945Z,99.90
2018-08-09T07:22:02.865Z,99.30
2018-08-09T07:24:30.879Z,98.80
2018-08-09T07:26:59.350Z,98.00
2018-08-09T07:29:27.791Z,97.80
2018-08-09T07:31:56.322Z,97.80
2018-08-09T07:34:25.108Z,97.80
2018-08-09T07:36:53.530Z,97.40
2018-08-09T07:39:22.298Z,96.00
2018-08-09T07:41:50.761Z,96.50
2018-08-09T07:44:19.526Z,96.00
2018-08-09T07:46:48.017Z,95.90
2018-08-09T07:49:16.475Z,95.70
2018-08-09T07:51:44.911Z,95.90
2018-08-09T07:54:13.399Z,95.80
2018-08-09T07:56:41.866Z,95.70
2018-08-09T07:59:10.605Z,95.40
2018-08-09T08:01:39.042Z,95.40
2018-08-09T08:04:07.571Z,95.00
2018-08-09T08:06:36.435Z,93.80
2018-08-09T08:09:08.136Z,94.30
2018-08-09T08:11:36.874Z,94.70
2018-08-09T08:14:05.607Z,93.30
2018-08-09T08:16:34.456Z,92.20
2018-08-09T08:19:02.964Z,92.40
2018-08-09T08:21:31.456Z,92.00
2018-08-09T08:23:59.992Z,91.30
2018-08-09T08:26:28.698Z,90.80
2018-08-09T08:28:57.170Z,90.60
2018-08-09T08:31:25.634Z,90.00
2018-08-09T08:33:54.678Z,88.50
2018-08-09T08:36:23.129Z,89.00
2018-08-09T08:38:51.603Z,90.50
2018-08-09T08:41:20.422Z,86.40
2018-08-09T08:43:48.834Z,85.40
2018-08-09T08:46:17.290Z,85.40
2018-08-09T08:48:45.775Z,85.60
2018-08-09T08:51:14.218Z,89.00
2018-08-09T08:53:42.775Z,83.90
2018-08-09T08:56:11.546Z,84.30
2018-08-09T08:58:40.019Z,83.20
2018-08-09T09:01:08.516Z,83.10
2018-08-09T09:03:37.312Z,83.30
2018-08-09T09:06:05.785Z,83.10
2018-08-09T09:08:34.624Z,80.20
2018-08-09T09:11:03.123Z,81.20
2018-08-09T09:13:31.912Z,79.60
2018-08-09T09:16:00.394Z,79.40
2018-08-09T09:18:28.899Z,79.10
2018-08-09T09:20:58.171Z,76.60
2018-08-09T09:23:26.910Z,74.80
2018-08-09T09:25:55.402Z,74.90
2018-08-09T09:28:23.894Z,75.90
2018-08-09T09:30:52.415Z,74.90
2018-08-09T09:33:20.853Z,73.00
2018-08-09T09:35:49.354Z,72.20
2018-08-09T09:38:17.851Z,71.70
2018-08-09T09:40:46.347Z,72.00
2018-08-09T09:43:14.849Z,72.30
2018-08-09T09:45:43.356Z,71.90
2018-08-09T09:48:11.862Z,73.10
2018-08-09T09:50:40.688Z,72.70
2018-08-09T09:53:09.203Z,73.10
2018-08-09T09:55:37.694Z,71.50
2018-08-09T09:58:06.209Z,70.50
2018-08-09T10:00:38.882Z,70.20
2018-08-09T10:03:07.589Z,71.80
2018-08-09T10:05:36.077Z,70.50
2018-08-09T10:08:04.582Z,72.70
2018-08-09T10:10:33.120Z,70.80
2018-08-09T10:13:01.530Z,70.20
2018-08-09T10:15:30.015Z,71.10
2018-08-09T10:17:58.458Z,70.20
2018-08-09T10:20:26.922Z,70.00
2018-08-09T10:22:55.379Z,69.40
2018-08-09T10:25:24.099Z,69.20
2018-08-09T10:27:52.541Z,68.80
2018-08-09T10:30:21.038Z,68.80
2018-08-09T10:32:49.492Z,69.10
2018-08-09T10:35:17.946Z,68.80
2018-08-09T10:37:46.395Z,69.30
2018-08-09T10:40:15.130Z,69.30
2018-08-09T10:42:43.621Z,69.60
2018-08-09T10:45:12.120Z,70.00
2018-08-09T10:47:40.566Z,68.10
2018-08-09T10:50:09.116Z,68.10
2018-08-09T10:52:37.867Z,67.00
2018-08-09T10:55:06.750Z,66.50
2018-08-09T10:57:35.212Z,67.70
2018-08-09T11:00:04.787Z,68.60
2018-08-09T11:02:33.242Z,68.10
2018-08-09T11:05:01.746Z,67.80
2018-08-09T11:07:30.206Z,68.40
2018-08-09T11:09:59.005Z,68.80
2018-08-09T11:12:27.463Z,68.80
2018-08-09T11:14:56.024Z,69.10
2018-08-09T11:17:24.441Z,70.60
2018-08-09T11:19:52.873Z,70.60
2018-08-09T11:22:21.370Z,70.80
2018-08-09T11:24:50.177Z,73.30
2018-08-09T11:27:18.673Z,76.70
2018-08-09T11:29:47.396Z,76.50
2018-08-09T11:32:15.849Z,74.20
2018-08-09T11:34:44.293Z,71.40
2018-08-09T11:37:12.817Z,70.70
2018-08-09T11:39:41.298Z,69.90
2018-08-09T11:42:09.794Z,66.20
2018-08-09T11:44:38.233Z,68.80
2018-08-09T11:47:07.272Z,66.80
2018-08-09T11:49:35.714Z,65.60
2018-08-09T11:52:04.498Z,63.90
2018-08-09T11:54:32.979Z,64.30
2018-08-09T11:57:01.527Z,62.50
2018-08-09T11:59:30.209Z,62.00
2018-08-09T12:01:59.014Z,63.40
2018-08-09T12:04:27.510Z,59.60
2018-08-09T12:06:55.994Z,59.80
2018-08-09T12:09:24.512Z,59.90
2018-08-09T12:11:53.010Z,59.40
2018-08-09T12:14:21.802Z,58.30
2018-08-09T12:16:50.279Z,58.10
2018-08-09T12:19:18.778Z,58.60
2018-08-09T12:21:47.811Z,56.40
2018-08-09T12:24:16.337Z,58.30
2018-08-09T12:26:45.538Z,58.30
2018-08-09T12:29:14.577Z,57.40
2018-08-09T12:31:43.135Z,56.70
2018-08-09T12:34:11.622Z,57.00
2018-08-09T12:36:40.235Z,56.20
2018-08-09T12:39:11.099Z,55.30
2018-08-09T12:41:39.626Z,55.70
2018-08-09T12:44:08.267Z,55.60
2018-08-09T12:46:36.844Z,56.00
2018-08-09T12:49:05.553Z,54.70
2018-08-09T12:51:34.371Z,55.30
2018-08-09T12:54:02.878Z,54.10
2018-08-09T12:56:31.616Z,53.50
2018-08-09T12:59:00.119Z,52.80
2018-08-09T13:01:28.606Z,54.00
2018-08-09T13:03:57.422Z,55.50
2018-08-09T13:06:26.211Z,54.50
2018-08-09T13:08:54.714Z,53.80
2018-08-09T13:11:23.601Z,54.10
2018-08-09T13:13:52.197Z,53.20
2018-08-09T13:16:20.993Z,53.70
2018-08-09T13:18:49.473Z,53.80
2018-08-09T13:21:18.772Z,55.50
2018-08-09T13:23:47.241Z,54.90
2018-08-09T13:26:15.730Z,53.60
2018-08-09T13:28:44.211Z,52.80
2018-08-09T13:31:12.681Z,53.80
2018-08-09T13:33:41.553Z,53.30
2018-08-09T13:36:10.096Z,53.40
2018-08-09T13:38:39.143Z,58.70
2018-08-09T13:41:07.705Z,69.20
2018-08-09T13:43:36.206Z,73.10
2018-08-09T13:46:04.703Z,75.70
2018-08-09T13:48:33.206Z,77.70
2018-08-09T13:51:01.738Z,78.10
2018-08-09T13:53:30.259Z,79.30
2018-08-09T13:55:58.731Z,81.70
2018-08-09T13:58:27.599Z,84.20
2018-08-09T14:00:56.042Z,90.50
2018-08-09T14:03:24.528Z,92.70
2018-08-09T14:05:52.990Z,96.40
2018-08-09T14:08:21.490Z,99.90
2018-08-09T14:10:50.222Z,99.90
2018-08-09T14:13:18.756Z,99.90
2018-08-09T14:15:48.075Z,99.90
2018-08-09T14:18:16.565Z,99.90
2018-08-09T14:20:45.066Z,99.90
2018-08-09T14:23:13.875Z,99.90
2018-08-09T14:25:42.310Z,99.90
2018-08-09T14:28:10.854Z,99.90
2018-08-09T14:30:39.358Z,99.90
2018-08-09T14:33:07.839Z,99.90
2018-08-09T14:35:36.655Z,99.90
2018-08-09T14:38:05.187Z,99.90
2018-08-09T14:40:33.909Z,99.90
2018-08-09T14:43:02.687Z,99.90
2018-08-09T14:45:31.204Z,99.90
2018-08-09T14:47:59.751Z,99.90
2018-08-09T14:50:28.503Z,99.90
2018-08-09T14:52:57.027Z,99.90
2018-08-09T14:55:25.518Z,99.90
2018-08-09T14:57:54.052Z,99.90
2018-08-09T15:00:22.658Z,99.90
2018-08-09T15:02:51.177Z,99.90
2018-08-09T15:05:19.990Z,99.90
2018-08-09T15:07:48.522Z,99.90
2018-08-09T15:10:17.927Z,99.90
2018-08-09T15:12:46.475Z,99.90
2018-08-09T15:15:14.990Z,99.90
2018-08-09T15:17:43.814Z,99.90
2018-08-09T15:20:13.873Z,99.90
2018-08-09T15:22:42.854Z,99.90
2018-08-09T15:25:12.197Z,99.90
2018-08-09T15:27:40.700Z,99.90
2018-08-09T15:30:15.837Z,99.90
2018-08-09T15:32:44.364Z,99.90
2018-08-09T15:35:13.193Z,99.90
2018-08-09T15:37:41.866Z,99.90
2018-08-09T15:40:11.448Z,99.90
2018-08-09T15:42:40.028Z,99.90
2018-08-09T15:45:12.642Z,99.90
2018-08-09T15:47:41.764Z,99.90
2018-08-09T15:50:12.467Z,99.90
2018-08-09T15:52:41.324Z,99.90
2018-08-09T15:55:10.406Z,99.90
2018-08-09T15:57:38.973Z,99.90
2018-08-09T16:00:12.090Z,99.90
2018-08-09T16:02:40.890Z,99.90
2018-08-09T16:05:10.369Z,99.90
2018-08-09T16:07:39.190Z,99.90
2018-08-09T16:10:10.960Z,99.90
2018-08-09T16:12:39.890Z,99.90
2018-08-09T16:15:09.883Z,99.90
2018-08-09T16:17:38.430Z,99.90
2018-08-09T16:20:08.537Z,99.90
2018-08-09T16:22:37.019Z,99.90
2018-08-09T16:25:10.750Z,99.90
2018-08-09T16:27:39.447Z,99.90
2018-08-09T16:30:17.045Z,99.90
2018-08-09T16:32:45.554Z,99.90
2018-08-09T16:35:14.638Z,99.90
2018-08-09T16:37:43.659Z,99.90
2018-08-09T16:40:18.197Z,99.90
2018-08-09T16:42:47.005Z,99.90
2018-08-09T16:45:16.990Z,99.90
2018-08-09T16:47:45.529Z,99.90
2018-08-09T16:50:17.391Z,99.90
2018-08-09T16:52:47.143Z,99.90
2018-08-09T16:55:16.510Z,99.90
2018-08-09T16:57:45.063Z,99.90
2018-08-09T17:00:15.117Z,99.90
2018-08-09T17:02:44.310Z,99.90
2018-08-09T17:05:16.634Z,99.90
2018-08-09T17:07:45.265Z,99.90
2018-08-09T17:10:15.663Z,99.90
2018-08-09T17:12:45.099Z,99.90
2018-08-09T17:15:18.932Z,99.90
2018-08-09T17:17:47.411Z,99.90
2018-08-09T17:20:25.712Z,99.90
2018-08-09T17:22:54.238Z,99.90
2018-08-09T17:25:23.040Z,99.90
2018-08-09T17:27:51.814Z,99.90
2018-08-09T17:30:22.092Z,99.90
2018-08-09T17:32:50.878Z,99.90
2018-08-09T17:35:19.824Z,99.90
2018-08-09T17:37:48.389Z,99.90
2018-08-09T17:40:26.395Z,99.90
2018-08-09T17:42:56.057Z,99.90
2018-08-09T17:45:28.247Z,99.90
2018-08-09T17:47:56.762Z,99.90
2018-08-09T17:50:25.799Z,99.90
2018-08-09T17:52:55.337Z,99.90
2018-08-09T17:55:24.081Z,99.90
2018-08-09T17:57:52.634Z,99.90
2018-08-09T18:00:26.631Z,99.90
2018-08-09T18:02:55.404Z,99.90
2018-08-09T18:05:23.939Z,99.90
2018-08-09T18:07:53.097Z,99.90
2018-08-09T18:10:24.534Z,99.90
2018-08-09T18:12:53.319Z,99.90
2018-08-09T18:15:22.780Z,99.90
2018-08-09T18:17:51.646Z,99.90
2018-08-09T18:20:21.789Z,99.90
2018-08-09T18:22:50.626Z,99.90
2018-08-09T18:25:19.134Z,99.90
2018-08-09T18:27:47.629Z,99.90
2018-08-09T18:30:18.382Z,99.90
2018-08-09T18:32:47.210Z,99.90
2018-08-09T18:35:17.119Z,99.90
2018-08-09T18:37:45.975Z,99.90
2018-08-09T18:40:19.242Z,99.90
2018-08-09T18:42:48.141Z,99.90
2018-08-09T18:45:16.673Z,99.90
2018-08-09T18:47:45.201Z,99.90
2018-08-09T18:50:17.329Z,99.90
2018-08-09T18:52:46.207Z,99.90
2018-08-09T18:55:15.634Z,99.90
2018-08-09T18:57:44.193Z,99.90
2018-08-09T19:00:17.970Z,99.90
2018-08-09T19:02:46.978Z,99.90
2018-08-09T19:05:16.090Z,99.90
2018-08-09T19:07:44.775Z,99.90
2018-08-09T19:10:23.013Z,99.90
2018-08-09T19:12:51.553Z,99.90
2018-08-09T19:15:20.518Z,99.90
2018-08-09T19:17:49.188Z,99.90
2018-08-09T19:20:24.613Z,99.90
2018-08-09T19:22:53.243Z,99.90
2018-08-09T19:25:21.799Z,99.90
2018-08-09T19:27:50.627Z,99.90
2018-08-09T19:30:20.902Z,99.90
2018-08-09T19:32:49.699Z,99.90
2018-08-09T19:35:18.977Z,99.90
2018-08-09T19:37:47.847Z,99.90
2018-08-09T19:40:18.926Z,99.90
2018-08-09T19:42:47.646Z,99.90
2018-08-09T19:45:17.685Z,99.90
2018-08-09T19:47:46.213Z,99.90
2018-08-09T19:50:16.770Z,99.90
2018-08-09T19:52:45.561Z,99.90
2018-08-09T19:55:15.510Z,99.90
2018-08-09T19:57:45.386Z,99.90
2018-08-09T20:00:15.938Z,99.90
2018-08-09T20:02:46.149Z,99.90
2018-08-09T20:05:14.757Z,99.90
2018-08-09T20:07:43.358Z,99.90
2018-08-09T20:10:12.844Z,99.90
2018-08-09T20:12:41.689Z,99.90
2018-08-09T20:15:13.249Z,99.90
2018-08-09T20:17:41.769Z,99.90
2018-08-09T20:20:11.570Z,99.90
2018-08-09T20:22:40.042Z,99.90
2018-08-09T20:25:09.888Z,99.90
2018-08-09T20:27:38.495Z,99.90
2018-08-09T20:30:09.245Z,99.90
2018-08-09T20:32:38.067Z,99.90
2018-08-09T20:35:09.721Z,99.90
2018-08-09T20:37:38.537Z,99.90
2018-08-09T20:40:08.778Z,99.90
2018-08-09T20:42:37.466Z,99.90
2018-08-09T20:45:07.166Z,99.90
2018-08-09T20:47:36.150Z,99.90
2018-08-09T20:50:06.445Z,99.90
2018-08-09T20:52:34.974Z,99.90
2018-08-09T20:55:03.587Z,99.90
2018-08-09T20:57:32.070Z,99.90
2018-08-09T21:00:00.578Z,99.90
2018-08-09T21:02:29.330Z,99.90
2018-08-09T21:04:57.827Z,99.90
2018-08-09T21:07:26.349Z,99.90
2018-08-09T21:09:54.847Z,99.90
2018-08-09T21:12:23.374Z,99.90
2018-08-09T21:14:51.857Z,99.90
2018-08-09T21:17:20.338Z,99.90
2018-08-09T21:19:48.847Z,99.90
2018-08-09T21:22:17.371Z,99.90
2018-08-09T21:24:45.875Z,99.90
2018-08-09T21:27:14.395Z,99.90
2018-08-09T21:29:42.879Z,99.90
2018-08-09T21:32:11.359Z,99.90
2018-08-09T21:34:40.162Z,99.90
2018-08-09T21:37:08.674Z,99.90
2018-08-09T21:39:37.131Z,99.90
2018-08-09T21:42:05.635Z,99.90
2018-08-09T21:44:34.069Z,99.90
2018-08-09T21:47:02.869Z,99.90
2018-08-09T21:49:31.323Z,99.90
2018-08-09T21:52:00.094Z,99.90
2018-08-09T21:54:28.593Z,99.90
2018-08-09T21:56:57.672Z,99.90
2018-08-09T21:59:26.181Z,99.90
2018-08-09T22:01:54.710Z,99.90
2018-08-09T22:04:23.487Z,99.90
2018-08-09T22:06:57.265Z,99.90
2018-08-09T22:09:31.461Z,99.90
2018-08-09T22:12:05.678Z,99.90
2018-08-09T22:14:39.578Z,99.90
2018-08-09T22:17:13.600Z,99.90
2018-08-09T22:19:47.422Z,99.90
2018-08-09T22:22:16.183Z,99.90
2018-08-09T22:24:44.888Z,99.90
2018-08-09T22:27:13.437Z,99.90
2018-08-09T22:29:42.169Z,99.90
2018-08-09T22:32:10.698Z,99.90
2018-08-09T22:34:39.439Z,99.90
2018-08-09T22:37:07.915Z,99.90
2018-08-09T22:39:36.715Z,99.90
2018-08-09T22:42:05.233Z,99.90
2018-08-09T22:44:33.679Z,99.90
2018-08-09T22:47:02.241Z,99.90
2018-08-09T22:49:30.698Z,99.90
2018-08-09T22:51:59.157Z,99.90
2018-08-09T22:54:27.945Z,99.90
2018-08-09T22:56:56.724Z,99.90
2018-08-09T22:59:25.210Z,99.90
2018-08-09T23:01:53.953Z,99.90
2018-08-09T23:04:22.521Z,99.90
2018-08-09T23:06:51.017Z,99.90
2018-08-09T23:09:19.538Z,99.90
2018-08-09T23:11:48.121Z,99.90
2018-08-09T23:14:16.650Z,99.90
2018-08-09T23:16:45.289Z,99.90
2018-08-09T23:19:14.081Z,99.90
2018-08-09T23:21:43.027Z,99.90
2018-08-09T23:24:11.522Z,99.90
2018-08-09T23:26:40.149Z,99.90
2018-08-09T23:29:08.599Z,99.90
2018-08-09T23:31:37.098Z,99.90
2018-08-09T23:34:05.903Z,99.90
2018-08-09T23:36:34.425Z,99.90
2018-08-09T23:39:03.067Z,99.90
2018-08-09T23:41:31.852Z,99.90
2018-08-09T23:44:00.622Z,99.90
2018-08-09T23:46:29.123Z,99.90
2018-08-09T23:48:57.877Z,99.90
2018-08-09T23:51:26.349Z,99.90
2018-08-09T23:53:54.826Z,99.90
2018-08-09T23:56:23.286Z,99.90
2018-08-09T23:59:19.750Z,99.90
